Relevés horaires St-Hubert (Belgique)


Relevés horaires à St-Hubert - Mercredi 11 Avr. 2018
Heure UTC1 Température [°C] Vent [km/h] Hum. [%] Pres.4 [hPa] Visi. [Km] Nébu. [octa] Préc.5 [mm] Cond.
2m. Res. Ros. Dir.2 Vit. Moy. Raf.3
23:00 6.7 5.3 4.9 NE 7.4 7.4 9.3 88 1004.2(-1.0/3h) 30 0/8 -- --
22:00 7.1 5.7 4.2 NE 7.4 7.4 11.1 82 1004.4(-0.8/3h) 45 0/8 -- --
21:00 7.8 7.1 3.1 ENE 5.6 7.4 9.3 72 1004.7(-0.3/3h) 50 0/8 -- --
20:00 8.0 7.3 4.5 ENE 5.6 5.6 9.3 79 1005(0.0/3h) 45 0/8 -- --
19:00 8.1 7.4 2.7 ENE 5.6 5.6 9.3 69 1005(0.1/3h) 50 0/8 -- --
18:00 11.6 11.4 2.3 ENE 5.6 7.4 13.0 53 1004.1(-0.3/3h) 45 0/8 0/12h
--
17:00 12.7 12.7 3.4 ENE 5.6 7.4 13.0 53 1003.9(-0.7/3h) 45 0/8 -- --
16:00 14.8 14.8 2.1 NNO 3.7 7.4 13.0 42 1003.4(-1.5/3h) 35 3/8 -- --
15:00 14.0 14.0 1.6 N 5.6 7.4 11.1 43 1003.9(-1.5/3h) 30 0/8 -- --
14:00 14.9 14.9 4.1 NE 5.6 5.6 11.1 48 1004.2(-1.3/3h) 30 0/8 -- --
13:00 13.7 13.7 2.8 NNE 3.7 5.6 9.3 48 1005.2(-1.0/3h) 35 4/8 -- --
12:00 14.6 14.6 2.4 NNO 5.6 5.6 11.1 44 1005.4(-0.6/3h) 28 0/8 0/6h
--
11:00 13.3 13.3 1.0 OSO 3.7 3.7 11.1 43 1005.9(-0.3/3h) 40 0/8 -- --
10:00 12.0 12.0 1.1 NO 3.7 3.7 9.3 47 1006.6(0.3/3h) 35 0/8 -- --
09:00 9.8 9.8 4.3 NNO 1.9 3.7 5.6 69 1007.1(0.5/3h) 40 0/8 -- --
08:00 7.7 7.7 3.6 SSE 1.9 3.7 5.6 75 1007.5(0.8/3h) 45 0/8 -- --
07:00 6.5 6.5 3.1 SSE 3.7 3.7 5.6 79 1007.6(0.4/3h) 45 0/8 -- --
06:00 5.8 5.8 2.4 ESE 3.7 5.6 7.4 79 1007.5(0.3/3h) 45 0/8 0/12h
--
05:00 5.1 5.1 2.5 SE 3.7 5.6 7.4 83 1007.3(0.2/3h) 45 0/8 -- --
04:00 4.5 4.5 2.0 SSE 3.7 5.6 7.4 84 1007.6(0.5/3h) 45 0/8 -- --
03:00 4.5 3.3 2.3 SE 5.6 5.6 7.4 86 1007.5(0.3/3h) 45 0/8 -- --
02:00 4.7 4.7 1.9 SE 3.7 5.6 7.4 82 1007.6(0.6/3h) 50 0/8 -- --
01:00 4.9 3.7 2.1 SE 5.6 5.6 7.4 82 1007(0.0/3h) 45 0/8 -- --
00:00 4.3 4.3 2.4 SSE 3.7 7.4 14.8 87 1007.2(0.2/3h) 50 0/8 0/6h
0/24h
Ciel clair

1 Coordinated Universal Time. Actuellement il est 11:00 locale et 09:00 UTC.

2 Le vent souffle depuis la direction indiquée vers la direction oposée.

3 Les rafales max. sont disponible 40 min après l'heure du relevé.

4 Pour les stations d'altitude (plus de 600m) le géopotentiel du niveau le plus proche de la pression obligatoire est indiqué.

5 Les stations disposant d'un diffuseur peuvent indiquer "trace". Cela signifie que des précipitations ont touchés le sol mais que la quantité est inférieure à 0.1 mm.

Récapitulatif de la journée
Température [°C] Vent [km/h] Ensoleillement4 [h] Precipitations totale5 [mm] Pression [Hpa]
Min1 Max.2 Moy.3 Max. Min Max.
4.2 15.1 5.8 14.8 0 h 0 min 0 1003.4 1007.6

1 Température minimale relevée entre 18:00 UTC la veille et 18:00 UTC le jour donné.

2 Température maximale relevée entre 06:00 UTC le jour donné et 06:00 UTC le lendemain.

3 Vent moyen de la journée basé sur les relevés horaires.

4 Ensoleillement en heures relevé entre 06:00 UTC la veille et 06:00 UTC le jour donné.

5 Précipitations totales tombées entre 06:00 UTC la jour donné et 06:00 UTC le lendemain.

Graphiques horaires